sensor_id;sensor_type;location;lat;lon;timestamp;P1;durP1;ratioP1;P2;durP2;ratioP2
64686;SDS011;51113;53.646;-113.674;2023-06-14T00:00:08;14.68;;;4.50;;
64686;SDS011;51113;53.646;-113.674;2023-06-14T00:02:38;8.07;;;4.60;;
64686;SDS011;51113;53.646;-113.674;2023-06-14T00:05:07;11.38;;;5.60;;
64686;SDS011;51113;53.646;-113.674;2023-06-14T00:07:37;10.32;;;5.35;;
64686;SDS011;51113;53.646;-113.674;2023-06-14T00:10:10;9.48;;;4.65;;
64686;SDS011;51113;53.646;-113.674;2023-06-14T00:12:40;10.00;;;5.70;;
64686;SDS011;51113;53.646;-113.674;2023-06-14T00:15:09;10.73;;;4.70;;
64686;SDS011;51113;53.646;-113.674;2023-06-14T00:17:38;14.38;;;4.72;;
64686;SDS011;51113;53.646;-113.674;2023-06-14T00:20:07;13.23;;;4.70;;
64686;SDS011;51113;53.646;-113.674;2023-06-14T00:22:37;10.45;;;5.75;;
64686;SDS011;51113;53.646;-113.674;2023-06-14T00:25:06;10.93;;;5.00;;
64686;SDS011;51113;53.646;-113.674;2023-06-14T00:27:54;13.25;;;5.00;;
64686;SDS011;51113;53.646;-113.674;2023-06-14T00:30:24;9.82;;;4.80;;
64686;SDS011;51113;53.646;-113.674;2023-06-14T00:32:53;10.48;;;4.35;;
64686;SDS011;51113;53.646;-113.674;2023-06-14T00:35:23;10.82;;;5.13;;
64686;SDS011;51113;53.646;-113.674;2023-06-14T00:37:53;11.32;;;4.78;;
64686;SDS011;51113;53.646;-113.674;2023-06-14T00:40:23;7.78;;;4.13;;
64686;SDS011;51113;53.646;-113.674;2023-06-14T00:42:52;9.90;;;4.50;;
64686;SDS011;51113;53.646;-113.674;2023-06-14T00:45:21;6.65;;;4.15;;
64686;SDS011;51113;53.646;-113.674;2023-06-14T00:47:50;12.60;;;3.75;;
64686;SDS011;51113;53.646;-113.674;2023-06-14T00:50:23;25.17;;;4.45;;
64686;SDS011;51113;53.646;-113.674;2023-06-14T00:52:52;18.23;;;4.05;;
64686;SDS011;51113;53.646;-113.674;2023-06-14T00:55:21;19.08;;;4.80;;
64686;SDS011;51113;53.646;-113.674;2023-06-14T00:57:50;15.68;;;3.80;;
64686;SDS011;51113;53.646;-113.674;2023-06-14T01:00:19;12.50;;;2.35;;
64686;SDS011;51113;53.646;-113.674;2023-06-14T01:02:48;8.65;;;3.03;;
64686;SDS011;51113;53.646;-113.674;2023-06-14T01:05:18;18.23;;;2.88;;
64686;SDS011;51113;53.646;-113.674;2023-06-14T01:07:57;6.35;;;3.40;;
64686;SDS011;51113;53.646;-113.674;2023-06-14T01:10:51;9.15;;;3.70;;
64686;SDS011;51113;53.646;-113.674;2023-06-14T01:13:32;10.63;;;3.90;;
64686;SDS011;51113;53.646;-113.674;2023-06-14T01:18:31;7.30;;;3.20;;
64686;SDS011;51113;53.646;-113.674;2023-06-14T01:21:00;11.00;;;3.78;;
64686;SDS011;51113;53.646;-113.674;2023-06-14T01:23:33;9.20;;;3.53;;
64686;SDS011;51113;53.646;-113.674;2023-06-14T01:26:02;11.25;;;3.42;;
64686;SDS011;51113;53.646;-113.674;2023-06-14T01:28:31;9.00;;;3.75;;
64686;SDS011;51113;53.646;-113.674;2023-06-14T01:31:02;7.63;;;4.00;;
64686;SDS011;51113;53.646;-113.674;2023-06-14T01:33:32;7.72;;;3.30;;
64686;SDS011;51113;53.646;-113.674;2023-06-14T01:36:03;11.85;;;6.25;;
64686;SDS011;51113;53.646;-113.674;2023-06-14T01:38:36;14.52;;;7.95;;
64686;SDS011;51113;53.646;-113.674;2023-06-14T01:41:05;20.80;;;10.88;;
64686;SDS011;51113;53.646;-113.674;2023-06-14T01:43:35;19.30;;;12.85;;
64686;SDS011;51113;53.646;-113.674;2023-06-14T01:46:04;28.42;;;14.20;;
64686;SDS011;51113;53.646;-113.674;2023-06-14T01:48:35;31.23;;;15.95;;
64686;SDS011;51113;53.646;-113.674;2023-06-14T01:51:04;25.77;;;16.75;;
64686;SDS011;51113;53.646;-113.674;2023-06-14T01:53:33;34.17;;;18.10;;
64686;SDS011;51113;53.646;-113.674;2023-06-14T01:56:01;33.75;;;17.98;;
64686;SDS011;51113;53.646;-113.674;2023-06-14T01:58:31;29.50;;;18.17;;
64686;SDS011;51113;53.646;-113.674;2023-06-14T02:01:00;37.33;;;16.88;;
64686;SDS011;51113;53.646;-113.674;2023-06-14T02:03:30;31.15;;;17.15;;
64686;SDS011;51113;53.646;-113.674;2023-06-14T02:05:58;28.58;;;16.00;;
64686;SDS011;51113;53.646;-113.674;2023-06-14T02:08:27;28.73;;;15.43;;
64686;SDS011;51113;53.646;-113.674;2023-06-14T02:10:56;29.70;;;15.35;;
64686;SDS011;51113;53.646;-113.674;2023-06-14T02:13:24;27.88;;;14.70;;
64686;SDS011;51113;53.646;-113.674;2023-06-14T02:15:53;25.70;;;14.63;;
64686;SDS011;51113;53.646;-113.674;2023-06-14T02:18:23;27.73;;;14.93;;
64686;SDS011;51113;53.646;-113.674;2023-06-14T02:20:51;24.77;;;14.75;;
64686;SDS011;51113;53.646;-113.674;2023-06-14T02:23:20;23.42;;;14.77;;
64686;SDS011;51113;53.646;-113.674;2023-06-14T02:25:49;22.90;;;14.55;;
64686;SDS011;51113;53.646;-113.674;2023-06-14T02:28:18;26.95;;;15.85;;
64686;SDS011;51113;53.646;-113.674;2023-06-14T02:30:46;24.10;;;14.82;;
64686;SDS011;51113;53.646;-113.674;2023-06-14T02:33:15;24.70;;;14.77;;
64686;SDS011;51113;53.646;-113.674;2023-06-14T02:35:45;25.67;;;15.80;;
64686;SDS011;51113;53.646;-113.674;2023-06-14T02:38:15;26.90;;;15.65;;
64686;SDS011;51113;53.646;-113.674;2023-06-14T02:40:44;25.52;;;14.35;;
64686;SDS011;51113;53.646;-113.674;2023-06-14T02:43:13;28.23;;;15.07;;
64686;SDS011;51113;53.646;-113.674;2023-06-14T02:45:42;22.50;;;14.02;;
64686;SDS011;51113;53.646;-113.674;2023-06-14T02:48:11;24.17;;;14.63;;
64686;SDS011;51113;53.646;-113.674;2023-06-14T02:50:40;24.67;;;14.43;;
64686;SDS011;51113;53.646;-113.674;2023-06-14T02:53:09;33.40;;;16.00;;
64686;SDS011;51113;53.646;-113.674;2023-06-14T02:55:39;23.52;;;15.02;;
64686;SDS011;51113;53.646;-113.674;2023-06-14T02:58:08;25.83;;;15.40;;
64686;SDS011;51113;53.646;-113.674;2023-06-14T03:00:37;30.88;;;15.43;;
64686;SDS011;51113;53.646;-113.674;2023-06-14T03:03:06;20.05;;;13.82;;
64686;SDS011;51113;53.646;-113.674;2023-06-14T03:05:45;24.90;;;14.75;;
64686;SDS011;51113;53.646;-113.674;2023-06-14T03:08:17;24.52;;;14.73;;
64686;SDS011;51113;53.646;-113.674;2023-06-14T03:10:47;24.00;;;14.07;;
64686;SDS011;51113;53.646;-113.674;2023-06-14T03:13:16;25.48;;;14.23;;
64686;SDS011;51113;53.646;-113.674;2023-06-14T03:15:45;19.52;;;13.25;;
64686;SDS011;51113;53.646;-113.674;2023-06-14T03:18:14;20.23;;;13.35;;
64686;SDS011;51113;53.646;-113.674;2023-06-14T03:20:43;21.38;;;13.48;;
64686;SDS011;51113;53.646;-113.674;2023-06-14T03:23:13;22.85;;;12.90;;
64686;SDS011;51113;53.646;-113.674;2023-06-14T03:25:42;20.25;;;12.45;;
64686;SDS011;51113;53.646;-113.674;2023-06-14T03:28:10;18.83;;;11.80;;
64686;SDS011;51113;53.646;-113.674;2023-06-14T03:30:39;19.23;;;11.63;;
64686;SDS011;51113;53.646;-113.674;2023-06-14T03:33:08;18.42;;;11.02;;
64686;SDS011;51113;53.646;-113.674;2023-06-14T03:35:37;28.95;;;11.55;;
64686;SDS011;51113;53.646;-113.674;2023-06-14T03:38:06;18.50;;;10.80;;
64686;SDS011;51113;53.646;-113.674;2023-06-14T03:40:35;19.70;;;12.10;;
64686;SDS011;51113;53.646;-113.674;2023-06-14T03:43:04;20.05;;;11.70;;
64686;SDS011;51113;53.646;-113.674;2023-06-14T03:45:33;20.52;;;12.43;;
64686;SDS011;51113;53.646;-113.674;2023-06-14T03:48:02;23.30;;;13.52;;
64686;SDS011;51113;53.646;-113.674;2023-06-14T03:50:31;18.83;;;12.93;;
64686;SDS011;51113;53.646;-113.674;2023-06-14T03:53:00;26.52;;;13.25;;
64686;SDS011;51113;53.646;-113.674;2023-06-14T03:55:29;19.65;;;12.27;;
64686;SDS011;51113;53.646;-113.674;2023-06-14T03:58:01;18.85;;;12.32;;
64686;SDS011;51113;53.646;-113.674;2023-06-14T04:00:30;20.23;;;12.65;;
64686;SDS011;51113;53.646;-113.674;2023-06-14T04:03:00;22.85;;;12.43;;
64686;SDS011;51113;53.646;-113.674;2023-06-14T04:05:31;24.98;;;12.75;;
64686;SDS011;51113;53.646;-113.674;2023-06-14T04:08:00;18.15;;;12.00;;
64686;SDS011;51113;53.646;-113.674;2023-06-14T04:10:29;21.80;;;12.52;;
64686;SDS011;51113;53.646;-113.674;2023-06-14T04:12:58;24.48;;;13.70;;
64686;SDS011;51113;53.646;-113.674;2023-06-14T04:15:27;22.48;;;13.65;;
64686;SDS011;51113;53.646;-113.674;2023-06-14T04:17:56;22.73;;;13.13;;
64686;SDS011;51113;53.646;-113.674;2023-06-14T04:20:25;20.40;;;12.55;;
64686;SDS011;51113;53.646;-113.674;2023-06-14T04:22:56;20.30;;;13.77;;
64686;SDS011;51113;53.646;-113.674;2023-06-14T04:25:25;24.45;;;12.63;;
64686;SDS011;51113;53.646;-113.674;2023-06-14T04:27:56;18.75;;;12.32;;
64686;SDS011;51113;53.646;-113.674;2023-06-14T04:30:25;20.80;;;12.80;;
64686;SDS011;51113;53.646;-113.674;2023-06-14T04:32:59;20.63;;;12.65;;
64686;SDS011;51113;53.646;-113.674;2023-06-14T04:35:28;20.20;;;12.73;;
64686;SDS011;51113;53.646;-113.674;2023-06-14T04:37:57;22.08;;;13.23;;
64686;SDS011;51113;53.646;-113.674;2023-06-14T04:40:26;17.92;;;11.57;;
64686;SDS011;51113;53.646;-113.674;2023-06-14T04:42:54;19.25;;;12.70;;
64686;SDS011;51113;53.646;-113.674;2023-06-14T04:45:23;19.65;;;12.80;;
64686;SDS011;51113;53.646;-113.674;2023-06-14T04:47:52;20.88;;;13.38;;
64686;SDS011;51113;53.646;-113.674;2023-06-14T04:50:25;20.35;;;12.35;;
64686;SDS011;51113;53.646;-113.674;2023-06-14T04:52:54;22.70;;;13.25;;
64686;SDS011;51113;53.646;-113.674;2023-06-14T04:55:23;21.83;;;12.77;;
64686;SDS011;51113;53.646;-113.674;2023-06-14T04:57:54;21.30;;;12.95;;
64686;SDS011;51113;53.646;-113.674;2023-06-14T05:00:23;20.08;;;11.65;;
64686;SDS011;51113;53.646;-113.674;2023-06-14T05:02:52;20.92;;;12.48;;
64686;SDS011;51113;53.646;-113.674;2023-06-14T05:05:20;27.52;;;13.32;;
64686;SDS011;51113;53.646;-113.674;2023-06-14T05:07:49;22.70;;;13.95;;
64686;SDS011;51113;53.646;-113.674;2023-06-14T05:10:18;23.83;;;14.45;;
64686;SDS011;51113;53.646;-113.674;2023-06-14T05:12:47;21.02;;;13.68;;
64686;SDS011;51113;53.646;-113.674;2023-06-14T05:15:17;21.25;;;13.25;;
64686;SDS011;51113;53.646;-113.674;2023-06-14T05:17:45;22.98;;;13.85;;
64686;SDS011;51113;53.646;-113.674;2023-06-14T05:20:21;24.73;;;13.57;;
64686;SDS011;51113;53.646;-113.674;2023-06-14T05:22:52;21.25;;;13.30;;
64686;SDS011;51113;53.646;-113.674;2023-06-14T05:25:22;23.15;;;13.98;;
64686;SDS011;51113;53.646;-113.674;2023-06-14T05:27:51;23.77;;;14.43;;
64686;SDS011;51113;53.646;-113.674;2023-06-14T05:30:20;23.88;;;14.32;;
64686;SDS011;51113;53.646;-113.674;2023-06-14T05:32:49;21.27;;;13.90;;
64686;SDS011;51113;53.646;-113.674;2023-06-14T05:35:18;22.83;;;13.90;;
64686;SDS011;51113;53.646;-113.674;2023-06-14T05:37:47;24.67;;;14.45;;
64686;SDS011;51113;53.646;-113.674;2023-06-14T05:40:16;22.83;;;13.98;;
64686;SDS011;51113;53.646;-113.674;2023-06-14T05:42:45;22.23;;;13.27;;
64686;SDS011;51113;53.646;-113.674;2023-06-14T05:45:14;23.30;;;14.65;;
64686;SDS011;51113;53.646;-113.674;2023-06-14T05:47:44;22.77;;;14.65;;
64686;SDS011;51113;53.646;-113.674;2023-06-14T05:50:13;22.73;;;14.52;;
64686;SDS011;51113;53.646;-113.674;2023-06-14T05:52:41;22.15;;;14.93;;
64686;SDS011;51113;53.646;-113.674;2023-06-14T05:55:10;22.50;;;14.43;;
64686;SDS011;51113;53.646;-113.674;2023-06-14T05:57:42;26.80;;;15.27;;
64686;SDS011;51113;53.646;-113.674;2023-06-14T06:00:12;21.20;;;14.98;;
64686;SDS011;51113;53.646;-113.674;2023-06-14T06:02:44;22.92;;;14.27;;
64686;SDS011;51113;53.646;-113.674;2023-06-14T06:05:15;24.75;;;14.90;;
64686;SDS011;51113;53.646;-113.674;2023-06-14T06:07:45;24.55;;;15.95;;
64686;SDS011;51113;53.646;-113.674;2023-06-14T06:10:14;20.75;;;14.60;;
64686;SDS011;51113;53.646;-113.674;2023-06-14T06:12:43;21.90;;;14.55;;
64686;SDS011;51113;53.646;-113.674;2023-06-14T06:15:12;23.48;;;15.13;;
64686;SDS011;51113;53.646;-113.674;2023-06-14T06:17:41;27.33;;;15.15;;
64686;SDS011;51113;53.646;-113.674;2023-06-14T06:20:22;22.65;;;14.60;;
64686;SDS011;51113;53.646;-113.674;2023-06-14T06:22:57;20.90;;;13.82;;
64686;SDS011;51113;53.646;-113.674;2023-06-14T06:25:26;25.83;;;14.27;;
64686;SDS011;51113;53.646;-113.674;2023-06-14T06:27:55;24.80;;;14.88;;
64686;SDS011;51113;53.646;-113.674;2023-06-14T06:30:24;22.73;;;14.57;;
64686;SDS011;51113;53.646;-113.674;2023-06-14T06:32:54;25.13;;;16.23;;
64686;SDS011;51113;53.646;-113.674;2023-06-14T06:35:23;24.65;;;16.85;;
64686;SDS011;51113;53.646;-113.674;2023-06-14T06:37:52;23.50;;;16.30;;
64686;SDS011;51113;53.646;-113.674;2023-06-14T06:40:21;26.27;;;17.90;;
64686;SDS011;51113;53.646;-113.674;2023-06-14T06:42:50;27.67;;;17.48;;
64686;SDS011;51113;53.646;-113.674;2023-06-14T06:45:19;31.23;;;19.10;;
64686;SDS011;51113;53.646;-113.674;2023-06-14T06:47:50;30.10;;;19.67;;
64686;SDS011;51113;53.646;-113.674;2023-06-14T06:50:20;36.28;;;20.27;;
64686;SDS011;51113;53.646;-113.674;2023-06-14T06:52:51;30.88;;;20.10;;
64686;SDS011;51113;53.646;-113.674;2023-06-14T06:55:20;30.33;;;20.00;;
64686;SDS011;51113;53.646;-113.674;2023-06-14T06:57:49;31.92;;;19.50;;
64686;SDS011;51113;53.646;-113.674;2023-06-14T07:00:20;29.27;;;18.80;;
64686;SDS011;51113;53.646;-113.674;2023-06-14T07:02:51;28.58;;;17.98;;
64686;SDS011;51113;53.646;-113.674;2023-06-14T07:05:23;31.73;;;19.50;;
64686;SDS011;51113;53.646;-113.674;2023-06-14T07:07:52;30.23;;;17.05;;
64686;SDS011;51113;53.646;-113.674;2023-06-14T07:10:23;26.80;;;17.48;;
64686;SDS011;51113;53.646;-113.674;2023-06-14T07:12:52;27.98;;;17.98;;
64686;SDS011;51113;53.646;-113.674;2023-06-14T07:15:21;23.38;;;16.63;;
64686;SDS011;51113;53.646;-113.674;2023-06-14T07:17:50;29.48;;;17.92;;
64686;SDS011;51113;53.646;-113.674;2023-06-14T07:20:18;25.05;;;16.33;;
64686;SDS011;51113;53.646;-113.674;2023-06-14T07:22:49;25.10;;;16.15;;
64686;SDS011;51113;53.646;-113.674;2023-06-14T07:25:18;28.42;;;17.60;;
64686;SDS011;51113;53.646;-113.674;2023-06-14T07:27:47;26.05;;;16.98;;
64686;SDS011;51113;53.646;-113.674;2023-06-14T07:30:16;30.23;;;16.88;;
64686;SDS011;51113;53.646;-113.674;2023-06-14T07:32:45;26.35;;;16.45;;
64686;SDS011;51113;53.646;-113.674;2023-06-14T07:35:14;26.05;;;16.83;;
64686;SDS011;51113;53.646;-113.674;2023-06-14T07:37:43;27.67;;;17.60;;
64686;SDS011;51113;53.646;-113.674;2023-06-14T07:40:14;26.25;;;17.60;;
64686;SDS011;51113;53.646;-113.674;2023-06-14T07:42:43;28.02;;;18.35;;
64686;SDS011;51113;53.646;-113.674;2023-06-14T07:45:13;26.85;;;18.80;;
64686;SDS011;51113;53.646;-113.674;2023-06-14T07:47:43;29.27;;;18.63;;
64686;SDS011;51113;53.646;-113.674;2023-06-14T07:50:12;32.33;;;20.25;;
64686;SDS011;51113;53.646;-113.674;2023-06-14T07:52:41;29.38;;;19.77;;
64686;SDS011;51113;53.646;-113.674;2023-06-14T07:55:11;31.23;;;19.20;;
64686;SDS011;51113;53.646;-113.674;2023-06-14T07:57:40;30.20;;;19.40;;
64686;SDS011;51113;53.646;-113.674;2023-06-14T08:00:11;33.28;;;21.08;;
64686;SDS011;51113;53.646;-113.674;2023-06-14T08:02:43;30.98;;;19.50;;
64686;SDS011;51113;53.646;-113.674;2023-06-14T08:05:12;29.58;;;19.50;;
64686;SDS011;51113;53.646;-113.674;2023-06-14T08:07:42;29.33;;;19.60;;
64686;SDS011;51113;53.646;-113.674;2023-06-14T08:10:11;31.45;;;19.40;;
64686;SDS011;51113;53.646;-113.674;2023-06-14T08:12:40;28.83;;;19.38;;
64686;SDS011;51113;53.646;-113.674;2023-06-14T08:15:09;33.58;;;20.00;;
64686;SDS011;51113;53.646;-113.674;2023-06-14T08:17:42;30.20;;;19.75;;
64686;SDS011;51113;53.646;-113.674;2023-06-14T08:20:12;30.33;;;19.58;;
64686;SDS011;51113;53.646;-113.674;2023-06-14T08:22:44;31.33;;;19.38;;
64686;SDS011;51113;53.646;-113.674;2023-06-14T08:25:16;31.35;;;19.25;;
64686;SDS011;51113;53.646;-113.674;2023-06-14T08:27:46;31.83;;;20.50;;
64686;SDS011;51113;53.646;-113.674;2023-06-14T08:30:14;30.02;;;19.67;;
64686;SDS011;51113;53.646;-113.674;2023-06-14T08:32:45;30.65;;;19.55;;
64686;SDS011;51113;53.646;-113.674;2023-06-14T08:35:24;31.75;;;19.80;;
64686;SDS011;51113;53.646;-113.674;2023-06-14T08:37:53;32.05;;;19.35;;
64686;SDS011;51113;53.646;-113.674;2023-06-14T08:40:22;29.85;;;19.48;;
64686;SDS011;51113;53.646;-113.674;2023-06-14T08:42:52;32.08;;;21.27;;
64686;SDS011;51113;53.646;-113.674;2023-06-14T08:45:23;36.20;;;21.42;;
64686;SDS011;51113;53.646;-113.674;2023-06-14T08:47:55;36.13;;;22.45;;
64686;SDS011;51113;53.646;-113.674;2023-06-14T08:50:28;35.30;;;21.63;;
64686;SDS011;51113;53.646;-113.674;2023-06-14T08:53:01;35.83;;;21.98;;
64686;SDS011;51113;53.646;-113.674;2023-06-14T08:55:31;34.47;;;21.52;;
64686;SDS011;51113;53.646;-113.674;2023-06-14T08:58:03;35.63;;;22.60;;
64686;SDS011;51113;53.646;-113.674;2023-06-14T09:00:33;34.10;;;21.95;;
64686;SDS011;51113;53.646;-113.674;2023-06-14T09:03:02;44.55;;;23.67;;
64686;SDS011;51113;53.646;-113.674;2023-06-14T09:05:35;38.88;;;23.83;;
64686;SDS011;51113;53.646;-113.674;2023-06-14T09:08:04;36.35;;;21.70;;
64686;SDS011;51113;53.646;-113.674;2023-06-14T09:10:34;38.38;;;23.90;;
64686;SDS011;51113;53.646;-113.674;2023-06-14T09:13:05;38.42;;;24.15;;
64686;SDS011;51113;53.646;-113.674;2023-06-14T09:15:34;39.60;;;25.02;;
64686;SDS011;51113;53.646;-113.674;2023-06-14T09:18:03;39.08;;;25.13;;
64686;SDS011;51113;53.646;-113.674;2023-06-14T09:20:34;47.47;;;25.48;;
64686;SDS011;51113;53.646;-113.674;2023-06-14T09:23:04;42.92;;;23.83;;
64686;SDS011;51113;53.646;-113.674;2023-06-14T09:25:45;47.20;;;27.10;;
64686;SDS011;51113;53.646;-113.674;2023-06-14T09:28:14;47.00;;;28.60;;
64686;SDS011;51113;53.646;-113.674;2023-06-14T09:30:43;58.67;;;34.92;;
64686;SDS011;51113;53.646;-113.674;2023-06-14T09:33:16;66.43;;;39.08;;
64686;SDS011;51113;53.646;-113.674;2023-06-14T09:35:46;68.53;;;40.78;;
64686;SDS011;51113;53.646;-113.674;2023-06-14T09:38:18;73.35;;;43.30;;
64686;SDS011;51113;53.646;-113.674;2023-06-14T09:40:49;72.75;;;42.88;;
64686;SDS011;51113;53.646;-113.674;2023-06-14T09:43:18;74.88;;;43.50;;
64686;SDS011;51113;53.646;-113.674;2023-06-14T09:45:49;73.88;;;43.65;;
64686;SDS011;51113;53.646;-113.674;2023-06-14T09:48:20;69.07;;;41.00;;
64686;SDS011;51113;53.646;-113.674;2023-06-14T09:50:49;69.20;;;41.85;;
64686;SDS011;51113;53.646;-113.674;2023-06-14T09:53:20;65.13;;;39.45;;
64686;SDS011;51113;53.646;-113.674;2023-06-14T09:55:52;70.93;;;40.35;;
64686;SDS011;51113;53.646;-113.674;2023-06-14T10:00:55;62.63;;;39.92;;
64686;SDS011;51113;53.646;-113.674;2023-06-14T10:03:27;67.55;;;39.22;;
64686;SDS011;51113;53.646;-113.674;2023-06-14T10:06:15;72.40;;;40.20;;
64686;SDS011;51113;53.646;-113.674;2023-06-14T10:08:45;63.97;;;39.28;;
64686;SDS011;51113;53.646;-113.674;2023-06-14T10:11:16;68.10;;;40.65;;
64686;SDS011;51113;53.646;-113.674;2023-06-14T10:13:45;69.88;;;41.78;;
64686;SDS011;51113;53.646;-113.674;2023-06-14T10:16:16;68.20;;;40.65;;
64686;SDS011;51113;53.646;-113.674;2023-06-14T10:18:53;68.97;;;41.90;;
64686;SDS011;51113;53.646;-113.674;2023-06-14T10:24:35;72.32;;;42.13;;
64686;SDS011;51113;53.646;-113.674;2023-06-14T10:27:11;74.88;;;44.15;;
64686;SDS011;51113;53.646;-113.674;2023-06-14T10:30:25;73.83;;;41.23;;
64686;SDS011;51113;53.646;-113.674;2023-06-14T10:32:38;79.03;;;44.08;;
64686;SDS011;51113;53.646;-113.674;2023-06-14T10:35:38;82.78;;;43.67;;
64686;SDS011;51113;53.646;-113.674;2023-06-14T10:38:07;76.15;;;47.40;;
64686;SDS011;51113;53.646;-113.674;2023-06-14T10:40:42;76.75;;;44.67;;
64686;SDS011;51113;53.646;-113.674;2023-06-14T10:43:20;79.32;;;45.47;;
64686;SDS011;51113;53.646;-113.674;2023-06-14T10:46:12;77.50;;;47.55;;
64686;SDS011;51113;53.646;-113.674;2023-06-14T10:48:51;92.15;;;48.35;;
64686;SDS011;51113;53.646;-113.674;2023-06-14T10:51:29;82.10;;;45.97;;
64686;SDS011;51113;53.646;-113.674;2023-06-14T10:53:59;88.57;;;47.28;;
64686;SDS011;51113;53.646;-113.674;2023-06-14T10:56:28;92.78;;;48.47;;
64686;SDS011;51113;53.646;-113.674;2023-06-14T10:59:04;85.75;;;50.00;;
64686;SDS011;51113;53.646;-113.674;2023-06-14T11:01:36;89.53;;;49.92;;
64686;SDS011;51113;53.646;-113.674;2023-06-14T11:04:14;96.57;;;51.83;;
64686;SDS011;51113;53.646;-113.674;2023-06-14T11:06:49;92.70;;;50.38;;
64686;SDS011;51113;53.646;-113.674;2023-06-14T11:09:36;86.40;;;48.95;;
64686;SDS011;51113;53.646;-113.674;2023-06-14T11:12:18;88.18;;;48.88;;
64686;SDS011;51113;53.646;-113.674;2023-06-14T11:14:49;89.82;;;50.60;;
64686;SDS011;51113;53.646;-113.674;2023-06-14T11:17:18;86.68;;;49.40;;
64686;SDS011;51113;53.646;-113.674;2023-06-14T11:19:47;90.85;;;49.28;;
64686;SDS011;51113;53.646;-113.674;2023-06-14T11:22:16;93.78;;;49.78;;
64686;SDS011;51113;53.646;-113.674;2023-06-14T11:24:45;92.43;;;49.10;;
64686;SDS011;51113;53.646;-113.674;2023-06-14T11:27:13;86.32;;;51.28;;
64686;SDS011;51113;53.646;-113.674;2023-06-14T11:29:48;94.05;;;51.22;;
64686;SDS011;51113;53.646;-113.674;2023-06-14T11:32:18;90.20;;;49.25;;
64686;SDS011;51113;53.646;-113.674;2023-06-14T11:34:47;85.53;;;49.40;;
64686;SDS011;51113;53.646;-113.674;2023-06-14T11:37:16;90.38;;;47.95;;
64686;SDS011;51113;53.646;-113.674;2023-06-14T11:39:45;93.15;;;48.05;;
64686;SDS011;51113;53.646;-113.674;2023-06-14T11:42:16;85.47;;;47.97;;
64686;SDS011;51113;53.646;-113.674;2023-06-14T11:44:46;79.68;;;45.20;;
64686;SDS011;51113;53.646;-113.674;2023-06-14T11:47:15;84.53;;;45.83;;
64686;SDS011;51113;53.646;-113.674;2023-06-14T11:49:44;83.78;;;46.45;;
64686;SDS011;51113;53.646;-113.674;2023-06-14T11:52:14;86.70;;;46.00;;
64686;SDS011;51113;53.646;-113.674;2023-06-14T11:54:43;87.15;;;45.22;;
64686;SDS011;51113;53.646;-113.674;2023-06-14T11:57:12;78.22;;;46.03;;
64686;SDS011;51113;53.646;-113.674;2023-06-14T11:59:41;92.55;;;46.83;;
64686;SDS011;51113;53.646;-113.674;2023-06-14T12:02:15;89.25;;;47.20;;
64686;SDS011;51113;53.646;-113.674;2023-06-14T12:04:48;86.10;;;47.80;;
64686;SDS011;51113;53.646;-113.674;2023-06-14T12:07:17;81.10;;;45.47;;
64686;SDS011;51113;53.646;-113.674;2023-06-14T12:12:22;93.18;;;47.50;;
64686;SDS011;51113;53.646;-113.674;2023-06-14T12:14:56;83.90;;;45.88;;
64686;SDS011;51113;53.646;-113.674;2023-06-14T12:17:25;84.45;;;45.47;;
64686;SDS011;51113;53.646;-113.674;2023-06-14T12:19:56;85.30;;;48.97;;
64686;SDS011;51113;53.646;-113.674;2023-06-14T12:22:24;91.30;;;49.08;;
64686;SDS011;51113;53.646;-113.674;2023-06-14T12:24:56;90.03;;;47.75;;
64686;SDS011;51113;53.646;-113.674;2023-06-14T12:27:25;88.13;;;47.53;;
64686;SDS011;51113;53.646;-113.674;2023-06-14T12:30:00;98.85;;;50.55;;
64686;SDS011;51113;53.646;-113.674;2023-06-14T12:32:30;91.25;;;49.53;;
64686;SDS011;51113;53.646;-113.674;2023-06-14T12:34:59;101.53;;;52.20;;
64686;SDS011;51113;53.646;-113.674;2023-06-14T12:37:28;101.85;;;50.55;;
64686;SDS011;51113;53.646;-113.674;2023-06-14T12:39:57;94.15;;;51.10;;
64686;SDS011;51113;53.646;-113.674;2023-06-14T12:42:28;98.78;;;50.00;;
64686;SDS011;51113;53.646;-113.674;2023-06-14T12:44:56;90.75;;;50.25;;
64686;SDS011;51113;53.646;-113.674;2023-06-14T12:47:25;87.90;;;48.53;;
64686;SDS011;51113;53.646;-113.674;2023-06-14T12:49:55;83.53;;;44.85;;
64686;SDS011;51113;53.646;-113.674;2023-06-14T12:52:23;75.82;;;42.20;;
64686;SDS011;51113;53.646;-113.674;2023-06-14T12:54:53;79.07;;;43.35;;
64686;SDS011;51113;53.646;-113.674;2023-06-14T12:57:22;79.40;;;48.13;;
64686;SDS011;51113;53.646;-113.674;2023-06-14T12:59:52;92.30;;;50.63;;
64686;SDS011;51113;53.646;-113.674;2023-06-14T13:02:21;82.85;;;47.75;;
64686;SDS011;51113;53.646;-113.674;2023-06-14T13:04:51;83.60;;;51.83;;
64686;SDS011;51113;53.646;-113.674;2023-06-14T13:07:21;82.45;;;49.08;;
64686;SDS011;51113;53.646;-113.674;2023-06-14T13:09:50;84.00;;;52.45;;
64686;SDS011;51113;53.646;-113.674;2023-06-14T13:12:18;85.68;;;50.85;;
64686;SDS011;51113;53.646;-113.674;2023-06-14T13:14:47;85.00;;;51.30;;
64686;SDS011;51113;53.646;-113.674;2023-06-14T13:17:16;89.30;;;55.35;;
64686;SDS011;51113;53.646;-113.674;2023-06-14T13:19:45;81.88;;;54.90;;
64686;SDS011;51113;53.646;-113.674;2023-06-14T13:22:14;81.32;;;53.13;;
64686;SDS011;51113;53.646;-113.674;2023-06-14T13:24:43;83.18;;;51.65;;
64686;SDS011;51113;53.646;-113.674;2023-06-14T13:27:12;84.72;;;53.58;;
64686;SDS011;51113;53.646;-113.674;2023-06-14T13:29:42;87.78;;;54.25;;
64686;SDS011;51113;53.646;-113.674;2023-06-14T13:32:11;90.40;;;55.65;;
64686;SDS011;51113;53.646;-113.674;2023-06-14T13:34:40;88.35;;;56.10;;
64686;SDS011;51113;53.646;-113.674;2023-06-14T13:37:08;86.43;;;54.90;;
64686;SDS011;51113;53.646;-113.674;2023-06-14T13:39:37;84.60;;;51.65;;
64686;SDS011;51113;53.646;-113.674;2023-06-14T13:42:07;90.00;;;53.88;;
64686;SDS011;51113;53.646;-113.674;2023-06-14T13:44:36;87.75;;;52.72;;
64686;SDS011;51113;53.646;-113.674;2023-06-14T13:47:05;91.68;;;54.00;;
64686;SDS011;51113;53.646;-113.674;2023-06-14T13:49:34;95.75;;;53.28;;
64686;SDS011;51113;53.646;-113.674;2023-06-14T13:52:03;92.53;;;52.97;;
64686;SDS011;51113;53.646;-113.674;2023-06-14T13:54:32;86.60;;;53.00;;
64686;SDS011;51113;53.646;-113.674;2023-06-14T13:57:01;89.40;;;52.97;;
64686;SDS011;51113;53.646;-113.674;2023-06-14T13:59:30;90.93;;;51.67;;
64686;SDS011;51113;53.646;-113.674;2023-06-14T14:01:58;93.07;;;48.97;;
64686;SDS011;51113;53.646;-113.674;2023-06-14T14:04:27;86.70;;;50.70;;
64686;SDS011;51113;53.646;-113.674;2023-06-14T14:06:56;86.80;;;49.05;;
64686;SDS011;51113;53.646;-113.674;2023-06-14T14:09:25;95.07;;;50.63;;
64686;SDS011;51113;53.646;-113.674;2023-06-14T14:11:53;95.20;;;50.75;;
64686;SDS011;51113;53.646;-113.674;2023-06-14T14:14:24;91.03;;;49.40;;